Time;durP1;ratioP1;P1;durP2;ratioP2;P2;SDS_P1;SDS_P2;PMS_P1;PMS_P2;Temp;Humidity;BMP_temperature;BMP_pressure;BME280_temperature;BME280_humidity;BME280_pressure;Samples;Min_cycle;Max_cycle;Signal;HPM_P1;HPM_P2
2022/08/08 00:02:22;;;;;;;1.40;1.30;;;15.90;99.90;;;;;;5109816;28;20699;-51
2022/08/08 00:05:06;;;;;;;3.28;1.70;;;15.80;99.90;;;;;;5110187;28;20215;-51
2022/08/08 00:07:43;;;;;;;1.92;1.30;;;15.80;99.90;;;;;;5110225;28;20199;-51
2022/08/08 00:10:18;;;;;;;2.15;1.40;;;15.70;99.90;;;;;;5109837;28;20235;-51
2022/08/08 00:13:03;;;;;;;2.78;1.45;;;15.70;99.90;;;;;;5110258;28;20203;-50
2022/08/08 00:15:43;;;;;;;1.88;1.50;;;15.70;99.90;;;;;;5109355;28;20200;-51
2022/08/08 00:18:29;;;;;;;1.75;1.35;;;15.70;99.90;;;;;;5106790;28;20216;-51
2022/08/08 00:21:01;;;;;;;3.78;1.60;;;15.60;99.90;;;;;;5107556;28;20714;-51
2022/08/08 00:23:40;;;;;;;5.22;1.90;;;15.50;99.90;;;;;;5109777;28;20218;-51
2022/08/08 00:26:17;;;;;;;2.38;1.50;;;15.50;99.90;;;;;;5109726;28;20195;-51
2022/08/08 00:29:02;;;;;;;2.05;1.50;;;15.40;99.90;;;;;;5109551;28;20603;-51
2022/08/08 00:31:39;;;;;;;2.13;1.50;;;15.40;99.90;;;;;;5109380;28;20203;-51
2022/08/08 00:37:37;;;;;;;2.17;1.57;;;15.30;99.90;;;;;;5109795;28;20223;-51
2022/08/08 00:40:59;;;;;;;2.90;1.70;;;15.30;99.90;;;;;;5109971;28;20648;-51
2022/08/08 00:44:17;;;;;;;1.70;1.60;;;15.20;99.90;;;;;;5109383;28;20204;-51
2022/08/08 00:47:13;;;;;;;3.20;1.58;;;15.20;99.90;;;;;;5096248;28;20203;-51
2022/08/08 00:50:24;;;;;;;2.13;1.60;;;15.10;99.90;;;;;;5109915;28;20262;-51
2022/08/08 00:53:03;;;;;;;2.07;1.50;;;15.20;99.90;;;;;;5084652;28;20216;-51
2022/08/08 00:56:35;;;;;;;2.70;1.50;;;15.10;99.90;;;;;;5101427;28;20218;-51
2022/08/08 00:59:50;;;;;;;5.10;1.57;;;15.10;99.90;;;;;;5109391;28;20802;-51
2022/08/08 01:03:09;;;;;;;3.17;1.63;;;15.00;99.90;;;;;;5102167;28;20207;-51
2022/08/08 01:06:42;;;;;;;1.67;1.50;;;15.00;99.90;;;;;;5100589;28;20747;-58
2022/08/08 01:09:41;;;;;;;1.83;1.40;;;14.90;99.90;;;;;;5113535;28;20256;-51
2022/08/08 01:12:46;;;;;;;2.40;1.50;;;14.90;99.90;;;;;;5066545;28;20218;-51
2022/08/08 01:15:58;;;;;;;3.60;1.60;;;14.80;99.90;;;;;;5115208;28;20215;-50
2022/08/08 01:18:49;;;;;;;2.00;1.70;;;14.80;99.90;;;;;;5089339;28;20243;-52
2022/08/08 01:21:52;;;;;;;2.23;1.40;;;14.80;99.90;;;;;;5113321;28;20297;-51
2022/08/08 01:25:04;;;;;;;1.70;1.37;;;14.80;99.90;;;;;;5089709;28;20204;-51
2022/08/08 01:28:08;;;;;;;1.67;1.57;;;14.70;99.90;;;;;;5073692;28;20204;-50
2022/08/08 01:31:25;;;;;;;2.27;1.40;;;14.70;99.90;;;;;;5112777;28;20349;-51
2022/08/08 01:34:41;;;;;;;4.33;2.03;;;14.60;99.90;;;;;;5101976;28;20302;-51
2022/08/08 01:37:43;;;;;;;4.50;1.43;;;14.60;99.90;;;;;;5090524;28;20258;-51
2022/08/08 01:40:33;;;;;;;2.67;1.60;;;14.50;99.90;;;;;;5113058;28;20227;-51
2022/08/08 01:43:09;;;;;;;1.93;1.63;;;14.50;99.90;;;;;;5113604;28;20264;-51
2022/08/08 01:45:52;;;;;;;7.13;1.87;;;14.50;99.90;;;;;;5113245;28;20211;-51
2022/08/08 01:48:46;;;;;;;2.77;2.00;;;14.40;99.90;;;;;;5112501;28;20204;-51
2022/08/08 01:51:39;;;;;;;2.23;1.90;;;14.40;99.90;;;;;;5112505;28;20587;-51
2022/08/08 01:54:38;;;;;;;3.27;1.83;;;14.30;99.90;;;;;;5102565;28;20299;-50
2022/08/08 01:57:34;;;;;;;3.47;2.00;;;14.30;99.90;;;;;;5099958;28;20306;-51
2022/08/08 02:00:25;;;;;;;1.93;1.83;;;14.30;99.90;;;;;;5112771;28;20314;-51
2022/08/08 02:03:17;;;;;;;2.00;1.80;;;14.30;99.90;;;;;;5101073;28;20556;-51
2022/08/08 02:06:17;;;;;;;1.60;1.50;;;14.30;99.90;;;;;;5090967;28;20282;-51
2022/08/08 02:09:04;;;;;;;1.80;1.67;;;14.30;99.90;;;;;;5110795;28;20224;-51
2022/08/08 02:11:47;;;;;;;2.27;1.90;;;14.30;99.90;;;;;;5111522;28;20207;-51
2022/08/08 02:14:35;;;;;;;3.43;1.87;;;14.30;99.90;;;;;;5111755;28;20238;-51
2022/08/08 02:17:27;;;;;;;2.43;1.77;;;14.40;99.90;;;;;;5112163;28;20200;-51
2022/08/08 02:20:18;;;;;;;2.17;1.80;;;14.40;99.90;;;;;;5106910;28;20251;-51
2022/08/08 02:23:13;;;;;;;1.93;1.67;;;14.40;99.90;;;;;;5110938;28;20304;-51
2022/08/08 02:26:00;;;;;;;2.37;1.53;;;14.30;99.90;;;;;;5111966;28;20215;-51
2022/08/08 02:28:48;;;;;;;1.93;1.73;;;14.30;99.90;;;;;;5101565;28;20207;-52
2022/08/08 02:31:45;;;;;;;1.80;1.50;;;14.30;99.90;;;;;;5109662;28;20294;-51
2022/08/08 02:35:03;;;;;;;2.00;1.80;;;14.20;99.90;;;;;;5097821;28;20572;-51
2022/08/08 02:37:54;;;;;;;2.03;1.80;;;14.20;99.90;;;;;;5112138;28;20595;-51
2022/08/08 02:40:36;;;;;;;2.00;1.90;;;14.10;99.90;;;;;;5112051;28;20315;-51
2022/08/08 02:43:30;;;;;;;2.30;1.77;;;14.10;99.90;;;;;;5112058;28;20195;-51
2022/08/08 02:46:43;;;;;;;3.17;2.10;;;14.00;99.90;;;;;;5078441;28;20301;-51
2022/08/08 02:49:55;;;;;;;1.93;1.77;;;14.00;99.90;;;;;;5111191;28;20231;-51
2022/08/08 02:52:44;;;;;;;2.43;1.67;;;13.90;99.90;;;;;;5019952;28;20210;-51
2022/08/08 02:56:02;;;;;;;3.20;1.80;;;13.90;99.90;;;;;;5028299;28;20228;-51
2022/08/08 02:59:14;;;;;;;2.80;1.80;;;13.90;99.90;;;;;;5110990;28;20234;-51
2022/08/08 03:02:34;;;;;;;1.97;1.77;;;13.90;99.90;;;;;;5111596;28;20649;-51
2022/08/08 03:05:32;;;;;;;2.93;1.90;;;13.90;99.90;;;;;;5110724;28;20218;-50
2022/08/08 03:08:58;;;;;;;2.43;2.10;;;13.90;99.90;;;;;;5110192;28;20207;-51
2022/08/08 03:12:08;;;;;;;4.30;2.23;;;13.90;99.90;;;;;;5070711;28;20215;-51
2022/08/08 03:15:02;;;;;;;2.13;2.03;;;13.80;99.90;;;;;;5049136;28;20239;-51
2022/08/08 03:17:58;;;;;;;1.90;1.80;;;13.80;99.90;;;;;;5111013;28;20291;-51
2022/08/08 03:20:42;;;;;;;3.23;1.73;;;13.70;99.90;;;;;;5101476;28;20226;-50
2022/08/08 03:23:20;;;;;;;2.90;2.00;;;13.70;99.90;;;;;;5111840;28;20204;-51
2022/08/08 03:25:53;;;;;;;3.10;2.10;;;13.70;99.90;;;;;;5111252;28;20211;-51
2022/08/08 03:28:30;;;;;;;2.53;2.00;;;13.70;99.90;;;;;;5101009;28;20204;-51
2022/08/08 03:30:58;;;;;;;2.60;1.97;;;13.60;99.90;;;;;;5105698;28;20223;-51
2022/08/08 03:33:46;;;;;;;5.60;1.70;;;13.60;99.90;;;;;;5098359;28;20298;-51
2022/08/08 03:36:28;;;;;;;2.17;1.80;;;13.60;99.90;;;;;;5082658;28;20199;-52
2022/08/08 03:39:00;;;;;;;1.83;1.70;;;13.60;99.90;;;;;;5110404;28;20230;-51
2022/08/08 03:41:43;;;;;;;2.10;1.80;;;13.60;99.90;;;;;;5110897;28;20199;-51
2022/08/08 03:44:33;;;;;;;1.90;1.60;;;13.60;99.90;;;;;;5110805;28;20207;-51
2022/08/08 03:47:02;;;;;;;2.87;1.80;;;13.50;99.90;;;;;;5110695;28;20668;-51
2022/08/08 03:49:47;;;;;;;2.20;1.83;;;13.50;99.90;;;;;;5110631;28;20301;-51
2022/08/08 03:52:30;;;;;;;2.33;1.70;;;13.60;99.90;;;;;;5111305;28;20233;-51
2022/08/08 03:55:09;;;;;;;2.33;1.93;;;13.60;99.90;;;;;;5107405;28;20624;-51
2022/08/08 03:57:58;;;;;;;1.90;1.80;;;13.60;99.90;;;;;;5110214;28;20668;-51
2022/08/08 04:00:51;;;;;;;2.20;2.00;;;13.70;99.90;;;;;;5110533;28;20310;-51
2022/08/08 04:03:39;;;;;;;2.30;1.73;;;13.70;99.90;;;;;;5110557;28;20238;-51
2022/08/08 04:06:28;;;;;;;2.23;1.80;;;13.70;99.90;;;;;;5110373;28;20256;-51
2022/08/08 04:08:58;;;;;;;1.80;1.70;;;13.70;99.90;;;;;;5107041;28;20215;-51
2022/08/08 04:11:43;;;;;;;4.67;2.13;;;13.70;99.90;;;;;;5101937;28;20294;-51
2022/08/08 04:14:28;;;;;;;2.93;1.73;;;13.70;99.90;;;;;;5083647;28;20207;-51
2022/08/08 04:17:03;;;;;;;3.87;1.70;;;13.70;99.90;;;;;;5109512;28;20228;-51
2022/08/08 04:19:42;;;;;;;2.03;1.43;;;13.70;99.90;;;;;;5105457;28;20244;-51
2022/08/08 04:22:10;;;;;;;3.17;1.80;;;13.70;99.90;;;;;;5110082;28;20204;-51
2022/08/08 04:24:43;;;;;;;3.53;1.80;;;13.70;99.90;;;;;;5110302;28;20204;-51
2022/08/08 04:27:18;;;;;;;1.93;1.77;;;13.70;99.90;;;;;;5109769;28;20260;-50
2022/08/08 04:30:07;;;;;;;3.63;2.03;;;13.70;99.90;;;;;;5100102;28;20310;-51
2022/08/08 04:32:46;;;;;;;3.03;2.13;;;13.70;99.90;;;;;;5105711;28;20282;-52
2022/08/08 04:35:18;;;;;;;2.90;1.90;;;13.70;99.90;;;;;;5103891;28;20311;-49
2022/08/08 04:37:49;;;;;;;3.87;1.90;;;13.70;99.90;;;;;;5117994;28;20288;-50
2022/08/08 04:40:18;;;;;;;1.90;1.70;;;14.20;99.90;;;;;;5116018;28;20231;-51
2022/08/08 04:42:52;;;;;;;1.90;1.80;;;14.40;99.90;;;;;;5110480;28;20199;-51
2022/08/08 04:45:25;;;;;;;2.03;1.70;;;14.80;99.90;;;;;;5110257;28;20298;-51
2022/08/08 04:47:55;;;;;;;1.90;1.70;;;15.50;99.90;;;;;;5112970;28;20688;-51
2022/08/08 04:50:23;;;;;;;2.30;1.70;;;15.60;99.90;;;;;;5114025;28;20216;-51
2022/08/08 04:53:01;;;;;;;3.33;1.80;;;16.30;99.90;;;;;;5113435;28;20202;-51
2022/08/08 04:55:41;;;;;;;2.03;1.48;;;16.90;99.90;;;;;;5111363;28;20202;-51
2022/08/08 04:58:25;;;;;;;3.35;1.70;;;17.50;99.90;;;;;;5113699;28;20270;-51
2022/08/08 05:00:53;;;;;;;4.78;1.80;;;18.00;99.90;;;;;;5114041;28;20227;-51
2022/08/08 05:03:21;;;;;;;3.97;1.88;;;18.40;99.90;;;;;;5113584;28;20207;-50
2022/08/08 05:06:09;;;;;;;3.55;2.10;;;18.70;99.90;;;;;;5113947;28;20235;-52
2022/08/08 05:08:46;;;;;;;3.42;1.80;;;19.20;99.90;;;;;;5111901;28;20205;-51
2022/08/08 05:11:19;;;;;;;1.92;1.40;;;19.60;99.90;;;;;;5102850;28;20217;-52
2022/08/08 05:13:53;;;;;;;4.90;1.77;;;20.10;99.90;;;;;;5113705;28;20218;-51
2022/08/08 05:16:29;;;;;;;2.33;1.58;;;20.30;99.90;;;;;;5113615;28;20676;-52
2022/08/08 05:19:18;;;;;;;1.63;1.42;;;20.70;99.90;;;;;;5108515;28;20318;-51
2022/08/08 05:22:07;;;;;;;4.68;1.67;;;20.90;99.90;;;;;;5114185;28;20217;-51
2022/08/08 05:24:35;;;;;;;3.60;1.90;;;21.20;99.90;;;;;;5113246;28;20272;-51
2022/08/08 05:27:05;;;;;;;3.97;1.88;;;21.50;99.90;;;;;;5113886;28;20215;-51
2022/08/08 05:29:35;;;;;;;1.92;1.60;;;21.90;99.90;;;;;;5099105;28;20234;-50
2022/08/08 05:32:04;;;;;;;1.50;1.40;;;22.10;99.90;;;;;;5113704;28;20216;-51
2022/08/08 05:34:36;;;;;;;2.08;1.60;;;22.40;99.90;;;;;;5098182;28;20226;-52
2022/08/08 05:37:05;;;;;;;2.45;1.60;;;22.30;99.70;;;;;;5113550;28;20231;-52
2022/08/08 05:39:50;;;;;;;1.65;1.45;;;22.30;99.90;;;;;;5112389;28;20220;-51
2022/08/08 05:42:22;;;;;;;2.33;1.60;;;22.50;99.90;;;;;;5113388;28;20207;-51
2022/08/08 05:44:54;;;;;;;3.53;1.50;;;22.60;99.30;;;;;;5112533;28;20203;-51
2022/08/08 05:47:27;;;;;;;5.50;1.52;;;22.60;99.60;;;;;;5113221;28;20219;-51
2022/08/08 05:50:17;;;;;;;7.32;1.83;;;22.60;99.90;;;;;;5112668;28;20307;-52
2022/08/08 05:52:47;;;;;;;3.83;2.08;;;22.10;99.90;;;;;;5099240;28;20262;-51
2022/08/08 05:55:15;;;;;;;2.20;1.73;;;21.40;99.90;;;;;;5088802;28;20280;-51
2022/08/08 05:57:47;;;;;;;3.25;1.65;;;21.10;99.90;;;;;;5090730;28;20285;-51
2022/08/08 06:00:37;;;;;;;4.45;1.80;;;21.10;99.90;;;;;;5091452;28;20231;-51
2022/08/08 06:03:15;;;;;;;3.70;1.80;;;21.40;99.90;;;;;;5094197;28;20286;-52
2022/08/08 06:05:54;;;;;;;3.40;1.55;;;21.20;99.90;;;;;;5099935;28;20688;-51
2022/08/08 06:08:27;;;;;;;1.75;1.60;;;20.80;99.90;;;;;;5091906;28;20265;-51
2022/08/08 06:11:02;;;;;;;2.53;1.50;;;20.70;99.90;;;;;;5086031;28;20292;-51
2022/08/08 06:13:31;;;;;;;2.00;1.70;;;20.80;99.90;;;;;;5112334;28;20199;-52
2022/08/08 06:16:11;;;;;;;10.32;2.50;;;21.20;99.90;;;;;;5112563;28;20208;-51
2022/08/08 06:18:41;;;;;;;6.72;2.47;;;21.30;99.90;;;;;;5106766;28;20239;-51
2022/08/08 06:21:10;;;;;;;2.85;1.50;;;21.30;99.90;;;;;;5084591;28;20223;-51
2022/08/08 06:24:00;;;;;;;2.20;1.60;;;21.60;99.90;;;;;;5112224;28;20661;-52
2022/08/08 06:26:45;;;;;;;2.03;1.10;;;22.50;99.90;;;;;;5112092;28;20303;-52
2022/08/08 06:29:30;;;;;;;2.15;1.55;;;23.30;99.90;;;;;;5098438;28;20223;-52
2022/08/08 06:32:28;;;;;;;1.65;1.52;;;23.80;98.70;;;;;;5113563;28;20318;-51
2022/08/08 06:35:00;;;;;;;3.08;1.38;;;24.10;96.90;;;;;;5099493;28;20211;-52
2022/08/08 06:37:52;;;;;;;1.80;1.55;;;24.50;97.90;;;;;;5103241;28;20741;-52
2022/08/08 06:40:28;;;;;;;2.50;1.35;;;24.90;97.40;;;;;;5095620;28;20263;-52
2022/08/08 06:43:03;;;;;;;5.93;1.50;;;25.30;96.10;;;;;;5105174;28;20290;-51
2022/08/08 06:45:33;;;;;;;3.53;1.60;;;25.70;95.70;;;;;;5111607;28;20204;-52
2022/08/08 06:48:02;;;;;;;1.50;1.20;;;26.00;95.40;;;;;;5110202;28;20680;-51
2022/08/08 06:50:32;;;;;;;2.35;1.10;;;26.20;92.90;;;;;;5111616;28;20256;-52
2022/08/08 06:53:08;;;;;;;2.05;1.20;;;26.40;89.30;;;;;;5110742;28;20679;-52
2022/08/08 06:55:45;;;;;;;1.70;0.90;;;26.30;89.50;;;;;;5086428;28;20249;-50
2022/08/08 06:58:14;;;;;;;0.80;0.80;;;26.30;91.50;;;;;;5104881;28;20287;-53
2022/08/08 07:00:49;;;;;;;1.20;1.00;;;26.60;89.20;;;;;;5096896;28;20314;-52
2022/08/08 07:03:29;;;;;;;1.88;1.20;;;26.90;85.90;;;;;;5111274;28;20207;-52
2022/08/08 07:06:22;;;;;;;2.67;1.10;;;26.60;83.70;;;;;;5110955;28;20298;-52
2022/08/08 07:08:58;;;;;;;1.20;1.10;;;26.90;83.80;;;;;;5109753;28;20240;-52
2022/08/08 07:11:29;;;;;;;1.48;1.08;;;26.90;81.50;;;;;;5110671;28;20294;-52
2022/08/08 07:14:21;;;;;;;1.75;1.00;;;27.00;80.70;;;;;;5096815;28;20647;-52
2022/08/08 07:17:01;;;;;;;2.97;1.10;;;26.90;80.50;;;;;;5110706;28;20200;-52
2022/08/08 07:19:40;;;;;;;1.85;1.02;;;27.00;79.40;;;;;;5105630;28;20281;-52
2022/08/08 07:22:09;;;;;;;1.63;1.05;;;27.10;78.90;;;;;;5110932;28;20211;-52
2022/08/08 07:24:53;;;;;;;2.35;0.93;;;27.10;79.40;;;;;;5110566;28;20207;-52
2022/08/08 07:27:25;;;;;;;1.95;1.15;;;27.20;78.20;;;;;;5109110;28;20253;-52
2022/08/08 07:30:14;;;;;;;1.20;1.02;;;27.20;77.40;;;;;;5101250;28;20315;-52
2022/08/08 07:32:53;;;;;;;2.55;1.40;;;27.20;77.70;;;;;;5105629;28;20304;-52
2022/08/08 07:35:28;;;;;;;1.30;1.20;;;27.30;77.20;;;;;;5090606;28;20231;-52
2022/08/08 07:37:58;;;;;;;1.67;1.20;;;27.40;77.40;;;;;;5107405;28;20199;-52
2022/08/08 07:40:48;;;;;;;1.98;0.98;;;27.50;78.00;;;;;;5103905;28;20235;-52
2022/08/08 07:43:20;;;;;;;1.45;1.33;;;27.40;76.70;;;;;;5097351;28;20210;-51
2022/08/08 07:46:04;;;;;;;1.17;0.90;;;27.50;76.50;;;;;;5110611;28;20203;-52
2022/08/08 07:48:53;;;;;;;2.33;1.00;;;27.40;75.60;;;;;;5096296;28;20204;-51
2022/08/08 07:51:23;;;;;;;1.48;1.00;;;27.40;77.50;;;;;;5097724;28;20605;-51
2022/08/08 07:54:19;;;;;;;1.30;1.15;;;27.40;76.20;;;;;;5109837;28;20294;-51
2022/08/08 07:57:02;;;;;;;2.13;1.30;;;27.70;75.20;;;;;;5093215;28;20291;-51
2022/08/08 07:59:45;;;;;;;2.03;1.30;;;27.80;74.90;;;;;;5109888;28;20237;-52
2022/08/08 08:02:21;;;;;;;2.42;1.30;;;27.70;73.40;;;;;;5110067;28;20223;-52
2022/08/08 08:05:10;;;;;;;1.83;0.90;;;27.70;74.60;;;;;;5110822;28;20207;-51
2022/08/08 08:07:47;;;;;;;1.92;1.17;;;27.70;73.20;;;;;;5095649;28;20206;-52
2022/08/08 08:10:21;;;;;;;1.38;1.15;;;27.50;73.90;;;;;;5110244;28;20231;-52
2022/08/08 08:13:20;;;;;;;1.38;1.10;;;27.10;73.00;;;;;;5110140;28;20215;-51
2022/08/08 08:16:11;;;;;;;4.18;1.13;;;26.60;76.50;;;;;;5110422;28;20291;-52
2022/08/08 08:18:44;;;;;;;2.55;1.70;;;26.30;74.40;;;;;;5104981;28;20277;-52
2022/08/08 08:21:25;;;;;;;2.72;1.38;;;26.10;74.30;;;;;;5096755;28;20266;-51
2022/08/08 08:24:15;;;;;;;1.80;1.35;;;26.00;74.30;;;;;;5109140;28;20290;-52
2022/08/08 08:26:46;;;;;;;2.38;1.27;;;25.80;74.50;;;;;;5110080;28;20208;-52
2022/08/08 08:29:21;;;;;;;2.08;1.10;;;25.70;74.60;;;;;;5095844;28;20922;-51
2022/08/08 08:31:49;;;;;;;1.33;1.15;;;25.50;73.90;;;;;;5110430;28;20277;-51
2022/08/08 08:34:25;;;;;;;1.67;1.20;;;25.50;74.50;;;;;;5094810;28;20199;-51
2022/08/08 08:37:01;;;;;;;1.55;1.25;;;25.50;74.40;;;;;;5109378;28;20574;-51
2022/08/08 08:39:39;;;;;;;1.02;1.02;;;25.60;75.30;;;;;;5109358;28;20246;-52
2022/08/08 08:42:28;;;;;;;2.03;1.17;;;25.70;74.60;;;;;;5109552;28;20273;-52
2022/08/08 08:45:04;;;;;;;2.05;0.93;;;25.60;72.50;;;;;;5110334;28;20206;-51
2022/08/08 08:47:51;;;;;;;3.75;1.00;;;25.60;72.70;;;;;;5109593;28;20207;-52
2022/08/08 08:50:21;;;;;;;1.73;1.20;;;25.50;71.40;;;;;;5110238;28;20312;-51
2022/08/08 08:53:02;;;;;;;1.15;1.02;;;25.50;73.10;;;;;;5109086;28;20252;-52
2022/08/08 08:55:34;;;;;;;1.42;0.90;;;25.50;74.00;;;;;;5103784;28;20913;-51
2022/08/08 08:58:09;;;;;;;1.77;1.00;;;25.40;71.60;;;;;;5105627;28;20214;-52
2022/08/08 09:00:38;;;;;;;2.17;0.88;;;25.50;72.30;;;;;;5109243;28;20779;-52
2022/08/08 09:03:27;;;;;;;1.70;1.00;;;25.50;71.30;;;;;;5109256;28;20207;-51
2022/08/08 09:06:19;;;;;;;2.63;1.15;;;25.50;71.00;;;;;;5109450;28;20687;-51
2022/08/08 09:09:01;;;;;;;1.23;1.08;;;25.50;71.50;;;;;;5108423;28;20196;-52
2022/08/08 09:11:34;;;;;;;3.00;0.98;;;25.60;71.40;;;;;;5108517;28;20733;-52
2022/08/08 09:14:16;;;;;;;1.58;1.00;;;25.60;71.70;;;;;;5109563;28;20196;-51
2022/08/08 09:16:46;;;;;;;2.17;1.23;;;25.50;71.30;;;;;;5109048;28;20235;-52
2022/08/08 09:19:17;;;;;;;2.55;1.30;;;25.50;71.80;;;;;;5103936;28;20245;-52
2022/08/08 09:22:07;;;;;;;1.02;0.90;;;25.60;72.00;;;;;;5108705;28;20326;-52
2022/08/08 09:24:36;;;;;;;2.92;1.00;;;25.50;70.00;;;;;;5108935;28;20233;-51
2022/08/08 09:27:09;;;;;;;1.55;0.80;;;25.50;73.00;;;;;;5108656;28;20774;-51
2022/08/08 09:29:52;;;;;;;1.50;1.15;;;25.50;68.90;;;;;;5082772;28;20238;-52
2022/08/08 09:32:36;;;;;;;2.60;1.02;;;25.50;70.70;;;;;;5108424;28;20211;-51
2022/08/08 09:35:09;;;;;;;2.50;1.00;;;25.50;69.70;;;;;;5101885;28;20715;-52
2022/08/08 09:37:45;;;;;;;2.08;0.90;;;25.50;70.40;;;;;;5112920;28;20206;-51
2022/08/08 09:40:32;;;;;;;1.63;1.17;;;25.50;71.20;;;;;;5113217;28;20238;-51
2022/08/08 09:43:20;;;;;;;2.58;0.98;;;25.40;70.90;;;;;;5112817;28;20226;-51
2022/08/08 09:45:59;;;;;;;2.50;1.10;;;25.50;72.20;;;;;;5112701;28;20204;-52
2022/08/08 09:48:32;;;;;;;1.65;0.88;;;25.50;71.10;;;;;;5085079;28;20206;-52
2022/08/08 09:51:06;;;;;;;1.92;1.10;;;25.40;71.20;;;;;;5090653;28;20230;-51
2022/08/08 09:53:41;;;;;;;1.50;0.98;;;25.50;73.20;;;;;;5091288;28;20308;-51
2022/08/08 09:56:34;;;;;;;0.90;0.90;;;25.60;73.90;;;;;;5091542;28;20311;-51
2022/08/08 09:59:13;;;;;;;2.65;1.02;;;25.50;70.00;;;;;;5091473;28;20267;-52
2022/08/08 10:02:03;;;;;;;2.17;1.30;;;25.60;73.40;;;;;;5092214;28;20791;-51
2022/08/08 10:04:43;;;;;;;1.15;1.00;;;25.70;72.00;;;;;;5091115;28;20204;-54
2022/08/08 10:07:16;;;;;;;2.75;1.20;;;25.50;71.50;;;;;;5092226;28;20203;-51
2022/08/08 10:09:51;;;;;;;2.42;1.10;;;25.50;71.10;;;;;;5101855;28;20227;-52
2022/08/08 10:12:36;;;;;;;1.30;1.20;;;25.60;73.80;;;;;;5077502;28;20200;-52
2022/08/08 10:15:28;;;;;;;4.25;1.08;;;25.60;71.10;;;;;;5087429;28;20689;-52
2022/08/08 10:17:56;;;;;;;1.23;0.82;;;25.60;71.10;;;;;;5091365;28;20200;-52
2022/08/08 10:20:42;;;;;;;1.90;1.05;;;25.50;72.00;;;;;;5086918;28;20235;-52
2022/08/08 10:23:41;;;;;;;4.00;1.30;;;25.50;73.60;;;;;;5082918;28;20247;-52
2022/08/08 10:26:20;;;;;;;2.40;1.48;;;25.60;74.10;;;;;;5086393;28;20192;-52
2022/08/08 10:29:09;;;;;;;1.40;1.30;;;25.70;71.10;;;;;;5086501;28;20279;-52
2022/08/08 10:34:28;;;;;;;1.40;1.30;;;25.70;73.20;;;;;;5090742;28;20630;-51
2022/08/08 10:36:59;;;;;;;2.70;1.35;;;25.70;72.00;;;;;;5091730;28;20200;-52
2022/08/08 10:39:29;;;;;;;2.70;1.20;;;25.70;72.20;;;;;;5090866;28;20654;-51
2022/08/08 10:42:19;;;;;;;2.85;1.08;;;25.60;71.70;;;;;;5091497;28;20788;-52
2022/08/08 10:44:47;;;;;;;1.98;1.30;;;25.60;70.90;;;;;;5090184;28;20258;-51
2022/08/08 10:47:20;;;;;;;2.08;1.17;;;25.60;74.00;;;;;;5091285;28;20291;-52
2022/08/08 10:49:51;;;;;;;2.22;1.20;;;25.70;72.50;;;;;;5085638;28;20938;-52
2022/08/08 10:52:30;;;;;;;1.60;1.48;;;25.70;72.10;;;;;;5088903;28;20207;-52
2022/08/08 10:55:00;;;;;;;1.95;1.70;;;25.70;73.50;;;;;;5090932;28;20243;-52
2022/08/08 10:57:38;;;;;;;1.95;1.30;;;25.70;75.70;;;;;;5089288;28;20204;-52
2022/08/08 11:00:21;;;;;;;1.60;1.05;;;25.90;73.00;;;;;;5090996;28;20228;-52
2022/08/08 11:02:54;;;;;;;3.22;1.50;;;25.90;71.60;;;;;;5083827;28;20311;-52
2022/08/08 11:05:26;;;;;;;1.85;1.10;;;25.80;72.70;;;;;;5083898;28;20200;-52
2022/08/08 11:08:05;;;;;;;1.90;1.20;;;25.70;73.70;;;;;;5084848;28;20239;-52
2022/08/08 11:11:04;;;;;;;2.30;1.25;;;25.80;72.40;;;;;;5111451;28;20763;-52
2022/08/08 11:13:54;;;;;;;3.70;1.17;;;25.70;72.00;;;;;;5111039;28;20314;-52
2022/08/08 11:16:32;;;;;;;1.20;1.02;;;25.80;71.50;;;;;;5111448;28;20214;-52
2022/08/08 11:19:04;;;;;;;1.20;1.08;;;25.80;73.00;;;;;;5105892;28;20934;-52
2022/08/08 11:21:40;;;;;;;4.88;1.30;;;25.90;71.90;;;;;;5111638;28;20207;-51
2022/08/08 11:24:09;;;;;;;2.10;1.23;;;25.90;72.10;;;;;;5110863;28;20220;-52
2022/08/08 11:26:41;;;;;;;2.05;0.80;;;25.90;73.90;;;;;;5111570;28;20211;-52
2022/08/08 11:29:25;;;;;;;2.15;0.90;;;26.00;70.90;;;;;;5096688;28;20300;-52
2022/08/08 11:32:15;;;;;;;2.85;1.17;;;25.90;71.00;;;;;;5105583;28;20200;-52
2022/08/08 11:34:49;;;;;;;4.10;1.10;;;25.90;71.70;;;;;;5096175;28;20221;-52
2022/08/08 11:37:39;;;;;;;3.42;1.35;;;25.90;71.70;;;;;;5110027;28;20286;-51
2022/08/08 11:40:27;;;;;;;1.60;1.10;;;25.80;70.90;;;;;;5110460;28;20249;-51
2022/08/08 11:43:00;;;;;;;3.25;1.40;;;25.90;71.50;;;;;;5110328;28;20219;-52
2022/08/08 11:45:29;;;;;;;2.05;1.08;;;26.00;74.00;;;;;;5110391;28;20203;-51
2022/08/08 11:48:18;;;;;;;1.60;0.95;;;26.10;72.50;;;;;;5109615;28;20290;-52
2022/08/08 11:50:51;;;;;;;2.80;1.20;;;26.10;74.60;;;;;;5110091;28;20223;-52
2022/08/08 11:53:21;;;;;;;2.03;0.77;;;26.30;74.10;;;;;;5109621;28;20245;-52
2022/08/08 11:55:52;;;;;;;2.08;1.30;;;26.30;72.10;;;;;;5107591;28;20211;-52
2022/08/08 11:58:32;;;;;;;0.90;0.90;;;26.40;70.40;;;;;;5110115;28;20588;-52
2022/08/08 12:01:04;;;;;;;3.20;1.42;;;26.30;72.40;;;;;;5109132;28;20226;-51
2022/08/08 12:03:46;;;;;;;2.60;1.02;;;26.20;70.20;;;;;;5109354;28;20223;-52
2022/08/08 12:06:18;;;;;;;1.73;0.95;;;26.20;69.00;;;;;;5110455;28;20316;-52
2022/08/08 12:08:47;;;;;;;2.20;1.00;;;26.20;69.40;;;;;;5095256;28;20225;-52
2022/08/08 12:11:17;;;;;;;3.38;1.27;;;26.10;70.70;;;;;;5078093;28;20739;-52
2022/08/08 12:14:03;;;;;;;3.08;1.30;;;26.10;68.60;;;;;;5080554;28;20211;-51
2022/08/08 12:16:34;;;;;;;2.63;1.00;;;26.10;67.60;;;;;;5084506;28;20287;-53
2022/08/08 12:19:14;;;;;;;1.08;0.95;;;25.90;69.80;;;;;;5087713;28;20223;-52
2022/08/08 12:21:43;;;;;;;1.80;1.00;;;26.00;70.10;;;;;;5089279;28;20208;-52
2022/08/08 12:24:31;;;;;;;1.35;0.90;;;26.00;69.20;;;;;;5084134;28;20724;-52
2022/08/08 12:26:59;;;;;;;2.10;1.20;;;26.10;71.60;;;;;;5108743;28;20674;-52
2022/08/08 12:29:36;;;;;;;2.20;1.50;;;26.10;70.70;;;;;;5100288;28;20254;-52
2022/08/08 12:32:13;;;;;;;1.30;1.08;;;26.10;72.60;;;;;;5088740;28;20208;-52
2022/08/08 12:34:50;;;;;;;4.07;1.20;;;26.20;69.70;;;;;;5085924;28;20245;-52
2022/08/08 12:37:26;;;;;;;2.42;1.05;;;26.20;69.70;;;;;;5098093;28;20199;-52
2022/08/08 12:40:14;;;;;;;2.92;1.02;;;26.20;69.80;;;;;;5088403;28;20247;-53
2022/08/08 12:42:51;;;;;;;2.95;1.13;;;26.20;70.00;;;;;;5083501;28;20228;-52
2022/08/08 12:45:20;;;;;;;2.05;0.88;;;26.10;67.80;;;;;;5075119;28;20300;-53
2022/08/08 12:48:17;;;;;;;1.88;1.23;;;26.10;69.70;;;;;;5087365;28;20292;-52
2022/08/08 12:51:06;;;;;;;1.60;1.50;;;26.10;70.10;;;;;;5085660;28;20230;-52
2022/08/08 12:53:55;;;;;;;2.05;1.30;;;26.20;68.10;;;;;;5087556;28;20192;-52
2022/08/08 12:56:33;;;;;;;2.67;1.10;;;26.20;69.20;;;;;;5089030;28;20213;-52
2022/08/08 12:59:01;;;;;;;2.38;1.02;;;26.10;68.70;;;;;;5088699;28;20264;-52
2022/08/08 13:01:36;;;;;;;3.28;0.98;;;26.10;68.90;;;;;;5086875;28;20196;-52
2022/08/08 13:04:16;;;;;;;1.80;1.10;;;26.10;68.50;;;;;;5087680;28;20230;-52
2022/08/08 13:06:54;;;;;;;2.33;1.08;;;26.20;69.30;;;;;;5082278;28;20212;-52
2022/08/08 13:09:38;;;;;;;1.13;1.10;;;26.20;68.50;;;;;;5099985;28;20239;-52
2022/08/08 13:12:29;;;;;;;2.92;1.05;;;26.30;69.30;;;;;;5113483;28;20294;-52
2022/08/08 13:15:01;;;;;;;1.45;1.10;;;26.30;68.40;;;;;;5114175;28;20233;-52
2022/08/08 13:17:31;;;;;;;2.75;1.17;;;26.20;68.00;;;;;;5113310;28;20231;-51
2022/08/08 13:20:20;;;;;;;1.35;1.00;;;26.10;66.40;;;;;;5108466;28;20671;-52
2022/08/08 13:22:49;;;;;;;1.58;1.10;;;26.10;69.60;;;;;;5112942;28;20212;-52
2022/08/08 13:25:31;;;;;;;1.33;1.00;;;26.20;66.30;;;;;;5113525;28;20234;-50
2022/08/08 13:27:59;;;;;;;3.10;1.20;;;26.20;69.40;;;;;;5107140;28;20200;-52
2022/08/08 13:30:28;;;;;;;1.83;1.27;;;26.30;68.90;;;;;;5105598;28;20812;-52
2022/08/08 13:32:58;;;;;;;1.33;1.13;;;26.30;69.10;;;;;;5107450;28;20202;-52
2022/08/08 13:35:26;;;;;;;1.48;1.27;;;26.30;69.10;;;;;;5104835;28;20246;-51
2022/08/08 13:38:07;;;;;;;1.23;1.10;;;26.30;69.20;;;;;;5112959;28;20199;-52
2022/08/08 13:40:42;;;;;;;1.20;1.10;;;26.30;68.50;;;;;;5112715;28;20245;-52
2022/08/08 13:43:13;;;;;;;2.03;1.30;;;26.30;67.70;;;;;;5113166;28;20203;-50
2022/08/08 13:45:43;;;;;;;1.35;1.02;;;26.30;69.10;;;;;;5113271;28;20211;-52
2022/08/08 13:48:16;;;;;;;1.75;1.30;;;26.30;68.00;;;;;;5111167;28;20203;-52
2022/08/08 13:50:52;;;;;;;2.70;1.33;;;26.30;69.50;;;;;;5112921;28;20257;-53
2022/08/08 13:53:49;;;;;;;3.70;1.30;;;26.30;68.60;;;;;;5094415;28;20290;-52
2022/08/08 13:56:35;;;;;;;1.20;1.00;;;26.20;68.50;;;;;;5092060;28;20677;-52
2022/08/08 13:59:32;;;;;;;3.35;1.50;;;26.30;71.00;;;;;;5074091;28;20324;-52
2022/08/08 14:02:01;;;;;;;1.27;1.10;;;26.30;68.70;;;;;;5091480;28;20208;-52
2022/08/08 14:04:39;;;;;;;1.60;1.13;;;26.40;70.00;;;;;;5090963;28;20299;-51
2022/08/08 14:07:22;;;;;;;1.73;1.27;;;26.30;70.00;;;;;;5079769;28;20287;-52
2022/08/08 14:09:50;;;;;;;1.60;1.50;;;26.40;68.90;;;;;;5101508;28;20269;-52
2022/08/08 14:12:39;;;;;;;3.20;1.23;;;26.40;67.80;;;;;;5112643;28;20219;-51